Kezdőlap
METAR-TAF:

METAR-TAF

Repülőterek :

Mutsu, Japán

földrajzi szélesség: 41-14N, földrajzi hosszúság: 141-08E, magasság: 7 m

Jelenlegi meteorológiai megfigyelések

A jelentés 7 órával és 51 perccel ezelõtt készült, 07:25 UTC
Nyugati szél 19 kt széllökések: 37 kt, dél-délnyugati és nyugat-északnyugati között változik
Hőmérséklet 14°C
Páratartalom 67%
Légköri nyomás 1001 hPa
Látótávolság 10 km, vagy több
Kevés felhő 2000 lábon
Szakadozott felhőzet 4000 lábon

METAR: RJSO 250725Z 26019G37KT 210V290 9999 FEW020 BKN040 14/08 Q1001 RMK 1CU020 5CU040 A2957

Idő: 00:16 (15:16 UTC)


TAF: hiányzik

Meteorológiai megfigyelések és előrejelzések több, mint 4000 repülőtéren (METAR és TAF jelentéseket).

A térképen piros és sárga pontok jelzik az elérhető meteorológiai állomásokat.

Mozgassa az egeret a pont fölött, hogy megjelenjen az állomás neve.

Azután kattintson az időjárási megfigyelések és előrejelzések megtekintéséhez.

A térkép megváltoztatása: kattintson a fekete keresztel jelölt zöld gombra ráközelítéshez, a vonallal jelölt zöld gombra távolításhoz, vagy a zöld nyilakra a szomszédos térképek eléréséhez.


METAR-TAF: